sensor_id;sensor_type;location;lat;lon;timestamp;temperature;humidity
39925;DHT22;25592;49.986;11.618;2023-09-08T00:00:58;21.90;79.10
39925;DHT22;25592;49.986;11.618;2023-09-08T00:03:43;21.80;79.20
39925;DHT22;25592;49.986;11.618;2023-09-08T00:06:29;21.80;79.30
39925;DHT22;25592;49.986;11.618;2023-09-08T00:09:15;21.80;79.10
39925;DHT22;25592;49.986;11.618;2023-09-08T00:12:00;21.70;79.20
39925;DHT22;25592;49.986;11.618;2023-09-08T00:14:46;21.60;79.40
39925;DHT22;25592;49.986;11.618;2023-09-08T00:17:32;21.70;79.30
39925;DHT22;25592;49.986;11.618;2023-09-08T00:20:17;21.60;79.90
39925;DHT22;25592;49.986;11.618;2023-09-08T00:23:03;21.50;79.80
39925;DHT22;25592;49.986;11.618;2023-09-08T00:25:49;21.50;79.90
39925;DHT22;25592;49.986;11.618;2023-09-08T00:28:34;21.50;79.80
39925;DHT22;25592;49.986;11.618;2023-09-08T00:31:20;21.40;78.90
39925;DHT22;25592;49.986;11.618;2023-09-08T00:34:06;21.40;79.30
39925;DHT22;25592;49.986;11.618;2023-09-08T00:36:51;21.20;79.70
39925;DHT22;25592;49.986;11.618;2023-09-08T00:39:38;21.30;79.70
39925;DHT22;25592;49.986;11.618;2023-09-08T00:42:23;21.20;79.70
39925;DHT22;25592;49.986;11.618;2023-09-08T00:45:09;21.20;79.90
39925;DHT22;25592;49.986;11.618;2023-09-08T00:47:55;21.20;80.10
39925;DHT22;25592;49.986;11.618;2023-09-08T00:50:40;21.10;80.40
39925;DHT22;25592;49.986;11.618;2023-09-08T00:53:25;21.00;80.60
39925;DHT22;25592;49.986;11.618;2023-09-08T00:56:11;21.00;80.90
39925;DHT22;25592;49.986;11.618;2023-09-08T00:58:57;20.90;80.90
39925;DHT22;25592;49.986;11.618;2023-09-08T01:01:43;21.00;80.40
39925;DHT22;25592;49.986;11.618;2023-09-08T01:04:28;21.00;80.50
39925;DHT22;25592;49.986;11.618;2023-09-08T01:07:15;20.90;80.50
39925;DHT22;25592;49.986;11.618;2023-09-08T01:10:01;20.90;80.70
39925;DHT22;25592;49.986;11.618;2023-09-08T01:12:51;20.80;81.10
39925;DHT22;25592;49.986;11.618;2023-09-08T01:15:36;20.70;81.80
39925;DHT22;25592;49.986;11.618;2023-09-08T01:18:22;20.70;81.20
39925;DHT22;25592;49.986;11.618;2023-09-08T01:24:17;20.60;81.20
39925;DHT22;25592;49.986;11.618;2023-09-08T01:27:06;20.70;81.20
39925;DHT22;25592;49.986;11.618;2023-09-08T01:29:53;20.60;80.80
39925;DHT22;25592;49.986;11.618;2023-09-08T01:32:40;20.60;81.00
39925;DHT22;25592;49.986;11.618;2023-09-08T01:35:26;20.60;80.90
39925;DHT22;25592;49.986;11.618;2023-09-08T01:38:11;20.60;80.80
39925;DHT22;25592;49.986;11.618;2023-09-08T01:40:57;20.60;80.60
39925;DHT22;25592;49.986;11.618;2023-09-08T01:43:42;20.60;80.50
39925;DHT22;25592;49.986;11.618;2023-09-08T01:46:28;20.50;80.90
39925;DHT22;25592;49.986;11.618;2023-09-08T01:49:13;20.40;81.00
39925;DHT22;25592;49.986;11.618;2023-09-08T01:51:59;20.50;81.40
39925;DHT22;25592;49.986;11.618;2023-09-08T01:54:44;20.40;81.50
39925;DHT22;25592;49.986;11.618;2023-09-08T01:57:30;20.20;81.70
39925;DHT22;25592;49.986;11.618;2023-09-08T02:00:15;20.20;81.80
39925;DHT22;25592;49.986;11.618;2023-09-08T02:03:01;20.30;81.30
39925;DHT22;25592;49.986;11.618;2023-09-08T02:05:46;20.30;81.30
39925;DHT22;25592;49.986;11.618;2023-09-08T02:08:32;20.00;82.00
39925;DHT22;25592;49.986;11.618;2023-09-08T02:11:17;19.90;81.80
39925;DHT22;25592;49.986;11.618;2023-09-08T02:14:02;20.00;81.80
39925;DHT22;25592;49.986;11.618;2023-09-08T02:16:48;19.90;81.60
39925;DHT22;25592;49.986;11.618;2023-09-08T02:19:33;19.90;82.30
39925;DHT22;25592;49.986;11.618;2023-09-08T02:22:19;19.90;81.90
39925;DHT22;25592;49.986;11.618;2023-09-08T02:25:05;19.70;81.70
39925;DHT22;25592;49.986;11.618;2023-09-08T02:27:50;19.80;82.10
39925;DHT22;25592;49.986;11.618;2023-09-08T02:30:36;19.80;82.20
39925;DHT22;25592;49.986;11.618;2023-09-08T02:33:22;19.80;82.30
39925;DHT22;25592;49.986;11.618;2023-09-08T02:36:07;19.90;82.10
39925;DHT22;25592;49.986;11.618;2023-09-08T02:38:53;19.80;81.70
39925;DHT22;25592;49.986;11.618;2023-09-08T02:41:39;19.90;81.60
39925;DHT22;25592;49.986;11.618;2023-09-08T02:44:24;19.90;81.60
39925;DHT22;25592;49.986;11.618;2023-09-08T02:47:11;19.80;81.70
39925;DHT22;25592;49.986;11.618;2023-09-08T02:49:57;19.80;81.60
39925;DHT22;25592;49.986;11.618;2023-09-08T02:52:42;19.90;81.60
39925;DHT22;25592;49.986;11.618;2023-09-08T02:55:28;19.90;81.00
39925;DHT22;25592;49.986;11.618;2023-09-08T02:58:14;19.80;81.50
39925;DHT22;25592;49.986;11.618;2023-09-08T03:03:55;19.70;81.30
39925;DHT22;25592;49.986;11.618;2023-09-08T03:06:41;19.70;81.20
39925;DHT22;25592;49.986;11.618;2023-09-08T03:09:26;19.70;81.70
39925;DHT22;25592;49.986;11.618;2023-09-08T03:12:12;19.60;81.30
39925;DHT22;25592;49.986;11.618;2023-09-08T03:14:58;19.50;81.40
39925;DHT22;25592;49.986;11.618;2023-09-08T03:17:43;19.40;81.80
39925;DHT22;25592;49.986;11.618;2023-09-08T03:20:29;19.50;81.80
39925;DHT22;25592;49.986;11.618;2023-09-08T03:23:14;19.40;81.80
39925;DHT22;25592;49.986;11.618;2023-09-08T03:26:02;19.30;81.60
39925;DHT22;25592;49.986;11.618;2023-09-08T03:28:47;19.30;82.30
39925;DHT22;25592;49.986;11.618;2023-09-08T03:31:33;19.20;82.50
39925;DHT22;25592;49.986;11.618;2023-09-08T03:34:18;19.10;82.70
39925;DHT22;25592;49.986;11.618;2023-09-08T03:37:06;19.30;81.90
39925;DHT22;25592;49.986;11.618;2023-09-08T03:39:52;19.20;82.00
39925;DHT22;25592;49.986;11.618;2023-09-08T03:42:37;19.20;81.90
39925;DHT22;25592;49.986;11.618;2023-09-08T03:45:23;19.20;82.50
39925;DHT22;25592;49.986;11.618;2023-09-08T03:48:08;19.20;82.70
39925;DHT22;25592;49.986;11.618;2023-09-08T03:50:53;19.20;82.20
39925;DHT22;25592;49.986;11.618;2023-09-08T03:53:39;19.20;82.70
39925;DHT22;25592;49.986;11.618;2023-09-08T03:56:24;19.20;82.10
39925;DHT22;25592;49.986;11.618;2023-09-08T03:59:10;19.20;82.00
39925;DHT22;25592;49.986;11.618;2023-09-08T04:01:56;19.20;82.20
39925;DHT22;25592;49.986;11.618;2023-09-08T04:04:42;19.10;81.80
39925;DHT22;25592;49.986;11.618;2023-09-08T04:07:27;19.10;82.00
39925;DHT22;25592;49.986;11.618;2023-09-08T04:10:13;19.20;82.00
39925;DHT22;25592;49.986;11.618;2023-09-08T04:12:58;19.20;81.90
39925;DHT22;25592;49.986;11.618;2023-09-08T04:15:44;19.20;82.10
39925;DHT22;25592;49.986;11.618;2023-09-08T04:18:29;19.20;82.20
39925;DHT22;25592;49.986;11.618;2023-09-08T04:21:15;19.10;82.60
39925;DHT22;25592;49.986;11.618;2023-09-08T04:24:00;19.10;82.30
39925;DHT22;25592;49.986;11.618;2023-09-08T04:26:46;19.00;83.10
39925;DHT22;25592;49.986;11.618;2023-09-08T04:29:32;19.00;82.80
39925;DHT22;25592;49.986;11.618;2023-09-08T04:32:17;19.00;82.80
39925;DHT22;25592;49.986;11.618;2023-09-08T04:35:03;18.90;82.90
39925;DHT22;25592;49.986;11.618;2023-09-08T04:37:49;18.90;82.60
39925;DHT22;25592;49.986;11.618;2023-09-08T04:40:34;18.90;82.60
39925;DHT22;25592;49.986;11.618;2023-09-08T04:43:20;18.90;82.80
39925;DHT22;25592;49.986;11.618;2023-09-08T04:46:05;18.90;83.40
39925;DHT22;25592;49.986;11.618;2023-09-08T04:48:51;19.00;82.90
39925;DHT22;25592;49.986;11.618;2023-09-08T04:51:37;19.00;82.40
39925;DHT22;25592;49.986;11.618;2023-09-08T04:54:22;19.00;82.30
39925;DHT22;25592;49.986;11.618;2023-09-08T04:57:11;18.90;83.40
39925;DHT22;25592;49.986;11.618;2023-09-08T05:00:08;18.90;82.80
39925;DHT22;25592;49.986;11.618;2023-09-08T05:02:53;19.00;82.90
39925;DHT22;25592;49.986;11.618;2023-09-08T05:05:39;18.80;82.80
39925;DHT22;25592;49.986;11.618;2023-09-08T05:08:24;18.60;84.10
39925;DHT22;25592;49.986;11.618;2023-09-08T05:11:10;18.70;83.30
39925;DHT22;25592;49.986;11.618;2023-09-08T05:13:55;18.70;83.60
39925;DHT22;25592;49.986;11.618;2023-09-08T05:16:41;18.70;83.80
39925;DHT22;25592;49.986;11.618;2023-09-08T05:19:34;18.60;83.90
39925;DHT22;25592;49.986;11.618;2023-09-08T05:22:20;18.70;83.50
39925;DHT22;25592;49.986;11.618;2023-09-08T05:25:06;18.70;84.20
39925;DHT22;25592;49.986;11.618;2023-09-08T05:27:52;18.70;84.60
39925;DHT22;25592;49.986;11.618;2023-09-08T05:30:37;18.60;85.00
39925;DHT22;25592;49.986;11.618;2023-09-08T05:33:23;18.70;84.70
39925;DHT22;25592;49.986;11.618;2023-09-08T05:36:08;18.70;84.40
39925;DHT22;25592;49.986;11.618;2023-09-08T05:38:53;18.70;84.90
39925;DHT22;25592;49.986;11.618;2023-09-08T05:41:39;18.80;84.10
39925;DHT22;25592;49.986;11.618;2023-09-08T05:44:24;18.90;84.90
39925;DHT22;25592;49.986;11.618;2023-09-08T05:47:10;18.90;84.70
39925;DHT22;25592;49.986;11.618;2023-09-08T05:49:55;18.90;85.80
39925;DHT22;25592;49.986;11.618;2023-09-08T05:52:41;18.80;86.60
39925;DHT22;25592;49.986;11.618;2023-09-08T05:55:26;18.80;86.60
39925;DHT22;25592;49.986;11.618;2023-09-08T05:58:12;18.90;86.60
39925;DHT22;25592;49.986;11.618;2023-09-08T06:00:58;18.90;85.80
39925;DHT22;25592;49.986;11.618;2023-09-08T06:03:44;18.90;85.70
39925;DHT22;25592;49.986;11.618;2023-09-08T06:06:30;18.90;86.40
39925;DHT22;25592;49.986;11.618;2023-09-08T06:09:16;18.90;87.30
39925;DHT22;25592;49.986;11.618;2023-09-08T06:12:01;19.00;86.60
39925;DHT22;25592;49.986;11.618;2023-09-08T06:14:46;19.10;86.10
39925;DHT22;25592;49.986;11.618;2023-09-08T06:17:32;19.00;87.50
39925;DHT22;25592;49.986;11.618;2023-09-08T06:20:17;18.90;88.70
39925;DHT22;25592;49.986;11.618;2023-09-08T06:23:03;19.00;87.90
39925;DHT22;25592;49.986;11.618;2023-09-08T06:25:49;19.10;87.80
39925;DHT22;25592;49.986;11.618;2023-09-08T06:28:34;19.20;87.20
39925;DHT22;25592;49.986;11.618;2023-09-08T06:31:21;19.30;87.00
39925;DHT22;25592;49.986;11.618;2023-09-08T06:34:06;19.30;86.90
39925;DHT22;25592;49.986;11.618;2023-09-08T06:36:52;19.30;87.00
39925;DHT22;25592;49.986;11.618;2023-09-08T06:39:38;19.40;87.50
39925;DHT22;25592;49.986;11.618;2023-09-08T06:42:23;19.40;87.30
39925;DHT22;25592;49.986;11.618;2023-09-08T06:45:09;19.50;87.00
39925;DHT22;25592;49.986;11.618;2023-09-08T06:47:54;19.50;88.00
39925;DHT22;25592;49.986;11.618;2023-09-08T06:50:41;19.50;87.30
39925;DHT22;25592;49.986;11.618;2023-09-08T06:53:26;19.60;87.30
39925;DHT22;25592;49.986;11.618;2023-09-08T06:56:12;19.60;87.00
39925;DHT22;25592;49.986;11.618;2023-09-08T06:58:57;19.60;87.50
39925;DHT22;25592;49.986;11.618;2023-09-08T07:01:42;19.60;87.70
39925;DHT22;25592;49.986;11.618;2023-09-08T07:04:28;19.70;88.30
39925;DHT22;25592;49.986;11.618;2023-09-08T07:07:13;19.70;87.90
39925;DHT22;25592;49.986;11.618;2023-09-08T07:09:59;19.70;87.20
39925;DHT22;25592;49.986;11.618;2023-09-08T07:12:44;19.80;87.10
39925;DHT22;25592;49.986;11.618;2023-09-08T07:15:30;19.80;87.30
39925;DHT22;25592;49.986;11.618;2023-09-08T07:18:15;19.90;86.80
39925;DHT22;25592;49.986;11.618;2023-09-08T07:21:01;19.90;86.50
39925;DHT22;25592;49.986;11.618;2023-09-08T07:23:47;19.90;86.60
39925;DHT22;25592;49.986;11.618;2023-09-08T07:26:32;20.00;86.40
39925;DHT22;25592;49.986;11.618;2023-09-08T07:29:18;20.10;86.80
39925;DHT22;25592;49.986;11.618;2023-09-08T07:32:04;20.10;86.70
39925;DHT22;25592;49.986;11.618;2023-09-08T07:34:50;20.20;87.90
39925;DHT22;25592;49.986;11.618;2023-09-08T07:37:40;20.30;87.00
39925;DHT22;25592;49.986;11.618;2023-09-08T07:40:26;20.30;88.00
39925;DHT22;25592;49.986;11.618;2023-09-08T07:43:11;20.40;87.60
39925;DHT22;25592;49.986;11.618;2023-09-08T07:45:57;20.40;87.90
39925;DHT22;25592;49.986;11.618;2023-09-08T07:48:42;20.50;86.60
39925;DHT22;25592;49.986;11.618;2023-09-08T07:51:28;20.60;87.00
39925;DHT22;25592;49.986;11.618;2023-09-08T07:54:13;20.70;87.50
39925;DHT22;25592;49.986;11.618;2023-09-08T07:56:59;20.80;87.20
39925;DHT22;25592;49.986;11.618;2023-09-08T07:59:44;20.90;88.10
39925;DHT22;25592;49.986;11.618;2023-09-08T08:02:30;21.00;86.80
39925;DHT22;25592;49.986;11.618;2023-09-08T08:05:17;21.10;87.10
39925;DHT22;25592;49.986;11.618;2023-09-08T08:08:02;21.30;87.60
39925;DHT22;25592;49.986;11.618;2023-09-08T08:10:48;21.40;85.70
39925;DHT22;25592;49.986;11.618;2023-09-08T08:13:35;21.60;84.90
39925;DHT22;25592;49.986;11.618;2023-09-08T08:16:21;21.80;84.20
39925;DHT22;25592;49.986;11.618;2023-09-08T08:19:07;21.90;83.50
39925;DHT22;25592;49.986;11.618;2023-09-08T08:21:52;22.00;83.00
39925;DHT22;25592;49.986;11.618;2023-09-08T08:24:38;22.00;83.50
39925;DHT22;25592;49.986;11.618;2023-09-08T08:27:23;22.20;83.40
39925;DHT22;25592;49.986;11.618;2023-09-08T08:30:09;22.40;84.00
39925;DHT22;25592;49.986;11.618;2023-09-08T08:32:56;22.60;82.90
39925;DHT22;25592;49.986;11.618;2023-09-08T08:35:48;22.80;83.20
39925;DHT22;25592;49.986;11.618;2023-09-08T08:38:34;22.90;81.50
39925;DHT22;25592;49.986;11.618;2023-09-08T08:41:20;23.00;80.20
39925;DHT22;25592;49.986;11.618;2023-09-08T08:44:07;23.00;80.90
39925;DHT22;25592;49.986;11.618;2023-09-08T08:46:54;23.10;81.00
39925;DHT22;25592;49.986;11.618;2023-09-08T08:49:43;23.30;81.00
39925;DHT22;25592;49.986;11.618;2023-09-08T08:52:30;23.50;81.20
39925;DHT22;25592;49.986;11.618;2023-09-08T08:55:16;23.60;80.20
39925;DHT22;25592;49.986;11.618;2023-09-08T08:58:04;23.70;80.10
39925;DHT22;25592;49.986;11.618;2023-09-08T09:00:51;24.00;80.20
39925;DHT22;25592;49.986;11.618;2023-09-08T09:03:40;24.10;79.50
39925;DHT22;25592;49.986;11.618;2023-09-08T09:06:26;24.40;78.80
39925;DHT22;25592;49.986;11.618;2023-09-08T09:09:12;24.50;79.20
39925;DHT22;25592;49.986;11.618;2023-09-08T09:11:58;24.70;78.60
39925;DHT22;25592;49.986;11.618;2023-09-08T09:14:47;24.90;77.80
39925;DHT22;25592;49.986;11.618;2023-09-08T09:17:33;24.90;77.80
39925;DHT22;25592;49.986;11.618;2023-09-08T09:20:20;25.00;76.80
39925;DHT22;25592;49.986;11.618;2023-09-08T09:23:06;25.10;77.60
39925;DHT22;25592;49.986;11.618;2023-09-08T09:25:52;25.30;76.70
39925;DHT22;25592;49.986;11.618;2023-09-08T09:28:47;25.50;77.30
39925;DHT22;25592;49.986;11.618;2023-09-08T09:31:32;25.70;76.40
39925;DHT22;25592;49.986;11.618;2023-09-08T09:34:18;25.90;76.40
39925;DHT22;25592;49.986;11.618;2023-09-08T09:37:04;26.00;76.10
39925;DHT22;25592;49.986;11.618;2023-09-08T09:39:54;26.20;76.20
39925;DHT22;25592;49.986;11.618;2023-09-08T09:42:39;26.50;76.90
39925;DHT22;25592;49.986;11.618;2023-09-08T09:45:27;26.70;74.10
39925;DHT22;25592;49.986;11.618;2023-09-08T09:48:13;26.90;74.60
39925;DHT22;25592;49.986;11.618;2023-09-08T09:51:14;26.90;74.00
39925;DHT22;25592;49.986;11.618;2023-09-08T09:54:03;27.00;73.10
39925;DHT22;25592;49.986;11.618;2023-09-08T09:56:50;27.20;74.20
39925;DHT22;25592;49.986;11.618;2023-09-08T09:59:42;27.10;73.70
39925;DHT22;25592;49.986;11.618;2023-09-08T10:02:28;27.30;71.80
39925;DHT22;25592;49.986;11.618;2023-09-08T10:05:16;27.40;72.70
39925;DHT22;25592;49.986;11.618;2023-09-08T10:08:02;27.40;73.40
39925;DHT22;25592;49.986;11.618;2023-09-08T10:10:47;27.80;72.80
39925;DHT22;25592;49.986;11.618;2023-09-08T10:13:46;28.20;72.20
39925;DHT22;25592;49.986;11.618;2023-09-08T10:16:35;28.20;71.60
39925;DHT22;25592;49.986;11.618;2023-09-08T10:19:22;28.40;72.10
39925;DHT22;25592;49.986;11.618;2023-09-08T10:22:11;28.50;71.90
39925;DHT22;25592;49.986;11.618;2023-09-08T10:25:03;28.70;71.40
39925;DHT22;25592;49.986;11.618;2023-09-08T10:27:51;28.80;70.70
39925;DHT22;25592;49.986;11.618;2023-09-08T10:30:37;28.80;69.90
39925;DHT22;25592;49.986;11.618;2023-09-08T10:33:23;28.70;69.50
39925;DHT22;25592;49.986;11.618;2023-09-08T10:36:09;29.00;71.10
39925;DHT22;25592;49.986;11.618;2023-09-08T10:39:26;29.40;70.20
39925;DHT22;25592;49.986;11.618;2023-09-08T10:45:17;30.20;70.90
39925;DHT22;25592;49.986;11.618;2023-09-08T10:48:03;30.40;69.50
39925;DHT22;25592;49.986;11.618;2023-09-08T10:50:49;30.50;68.90
39925;DHT22;25592;49.986;11.618;2023-09-08T10:53:37;30.50;69.10
39925;DHT22;25592;49.986;11.618;2023-09-08T10:56:46;30.80;69.10
39925;DHT22;25592;49.986;11.618;2023-09-08T10:59:38;30.90;67.80
39925;DHT22;25592;49.986;11.618;2023-09-08T11:02:50;30.40;66.70
39925;DHT22;25592;49.986;11.618;2023-09-08T11:05:36;30.20;66.90
39925;DHT22;25592;49.986;11.618;2023-09-08T11:08:22;30.20;66.60
39925;DHT22;25592;49.986;11.618;2023-09-08T11:11:07;30.20;66.50
39925;DHT22;25592;49.986;11.618;2023-09-08T11:13:52;29.80;66.60
39925;DHT22;25592;49.986;11.618;2023-09-08T11:16:38;29.90;66.50
39925;DHT22;25592;49.986;11.618;2023-09-08T11:19:24;30.20;66.90
39925;DHT22;25592;49.986;11.618;2023-09-08T11:22:10;30.50;68.30
39925;DHT22;25592;49.986;11.618;2023-09-08T11:24:56;30.80;67.10
39925;DHT22;25592;49.986;11.618;2023-09-08T11:27:42;30.40;65.30
39925;DHT22;25592;49.986;11.618;2023-09-08T11:30:29;30.70;67.50
39925;DHT22;25592;49.986;11.618;2023-09-08T11:33:16;31.00;65.80
39925;DHT22;25592;49.986;11.618;2023-09-08T11:36:02;31.00;65.70
39925;DHT22;25592;49.986;11.618;2023-09-08T11:38:47;31.20;66.00
39925;DHT22;25592;49.986;11.618;2023-09-08T11:41:33;31.40;65.20
39925;DHT22;25592;49.986;11.618;2023-09-08T11:44:18;31.60;65.60
39925;DHT22;25592;49.986;11.618;2023-09-08T11:47:09;31.80;65.40
39925;DHT22;25592;49.986;11.618;2023-09-08T11:49:55;31.50;65.10
39925;DHT22;25592;49.986;11.618;2023-09-08T11:52:47;31.50;65.70
39925;DHT22;25592;49.986;11.618;2023-09-08T11:55:33;32.00;65.20
39925;DHT22;25592;49.986;11.618;2023-09-08T11:58:19;32.00;64.70
39925;DHT22;25592;49.986;11.618;2023-09-08T12:01:05;31.80;64.50
39925;DHT22;25592;49.986;11.618;2023-09-08T12:03:52;32.20;64.70
39925;DHT22;25592;49.986;11.618;2023-09-08T12:06:39;32.20;63.10
39925;DHT22;25592;49.986;11.618;2023-09-08T12:09:25;31.80;63.00
39925;DHT22;25592;49.986;11.618;2023-09-08T12:12:11;31.90;63.20
39925;DHT22;25592;49.986;11.618;2023-09-08T12:14:57;32.30;64.30
39925;DHT22;25592;49.986;11.618;2023-09-08T12:17:49;32.90;64.00
39925;DHT22;25592;49.986;11.618;2023-09-08T12:20:36;32.90;63.40
39925;DHT22;25592;49.986;11.618;2023-09-08T12:23:22;32.90;63.30
39925;DHT22;25592;49.986;11.618;2023-09-08T12:26:10;33.00;62.00
39925;DHT22;25592;49.986;11.618;2023-09-08T12:28:55;33.10;62.60
39925;DHT22;25592;49.986;11.618;2023-09-08T12:31:42;33.00;61.00
39925;DHT22;25592;49.986;11.618;2023-09-08T12:34:28;32.80;57.80
39925;DHT22;25592;49.986;11.618;2023-09-08T12:37:13;32.60;57.30
39925;DHT22;25592;49.986;11.618;2023-09-08T12:39:59;32.40;55.70
39925;DHT22;25592;49.986;11.618;2023-09-08T12:42:46;32.30;56.20
39925;DHT22;25592;49.986;11.618;2023-09-08T12:45:44;32.60;56.30
39925;DHT22;25592;49.986;11.618;2023-09-08T12:48:32;32.50;55.20
39925;DHT22;25592;49.986;11.618;2023-09-08T12:51:17;32.50;55.70
39925;DHT22;25592;49.986;11.618;2023-09-08T12:54:02;32.50;57.30
39925;DHT22;25592;49.986;11.618;2023-09-08T12:56:48;32.60;55.70
39925;DHT22;25592;49.986;11.618;2023-09-08T12:59:34;32.70;56.10
39925;DHT22;25592;49.986;11.618;2023-09-08T13:02:20;32.70;55.50
39925;DHT22;25592;49.986;11.618;2023-09-08T13:05:06;32.60;56.40
39925;DHT22;25592;49.986;11.618;2023-09-08T13:07:51;32.60;57.50
39925;DHT22;25592;49.986;11.618;2023-09-08T13:10:37;32.50;56.30
39925;DHT22;25592;49.986;11.618;2023-09-08T13:13:22;32.60;56.80
39925;DHT22;25592;49.986;11.618;2023-09-08T13:16:08;32.50;56.30
39925;DHT22;25592;49.986;11.618;2023-09-08T13:18:53;32.30;56.80
39925;DHT22;25592;49.986;11.618;2023-09-08T13:21:39;32.50;56.10
39925;DHT22;25592;49.986;11.618;2023-09-08T13:24:24;32.30;56.00
39925;DHT22;25592;49.986;11.618;2023-09-08T13:27:10;32.30;55.80
39925;DHT22;25592;49.986;11.618;2023-09-08T13:30:13;32.10;56.00
39925;DHT22;25592;49.986;11.618;2023-09-08T13:32:59;32.10;57.20
39925;DHT22;25592;49.986;11.618;2023-09-08T13:35:44;32.10;57.10
39925;DHT22;25592;49.986;11.618;2023-09-08T13:38:29;32.10;57.20
39925;DHT22;25592;49.986;11.618;2023-09-08T13:41:15;32.00;57.50
39925;DHT22;25592;49.986;11.618;2023-09-08T13:44:00;32.00;56.90
39925;DHT22;25592;49.986;11.618;2023-09-08T13:46:55;32.10;57.20
39925;DHT22;25592;49.986;11.618;2023-09-08T13:49:41;32.30;57.50
39925;DHT22;25592;49.986;11.618;2023-09-08T13:52:28;32.50;56.70
39925;DHT22;25592;49.986;11.618;2023-09-08T13:55:16;32.40;55.30
39925;DHT22;25592;49.986;11.618;2023-09-08T13:58:04;32.40;56.60
39925;DHT22;25592;49.986;11.618;2023-09-08T14:00:54;32.30;56.50
39925;DHT22;25592;49.986;11.618;2023-09-08T14:03:44;32.20;56.80
39925;DHT22;25592;49.986;11.618;2023-09-08T14:06:47;32.20;56.50
39925;DHT22;25592;49.986;11.618;2023-09-08T14:09:40;32.20;56.40
39925;DHT22;25592;49.986;11.618;2023-09-08T14:12:38;32.10;56.10
39925;DHT22;25592;49.986;11.618;2023-09-08T14:15:23;32.10;57.20
39925;DHT22;25592;49.986;11.618;2023-09-08T14:18:09;32.40;56.60
39925;DHT22;25592;49.986;11.618;2023-09-08T14:20:55;32.50;56.20
39925;DHT22;25592;49.986;11.618;2023-09-08T14:23:40;32.60;56.40
39925;DHT22;25592;49.986;11.618;2023-09-08T14:26:26;32.70;56.50
39925;DHT22;25592;49.986;11.618;2023-09-08T14:29:12;32.70;57.20
39925;DHT22;25592;49.986;11.618;2023-09-08T14:31:58;32.60;57.30
39925;DHT22;25592;49.986;11.618;2023-09-08T14:34:43;32.50;57.30
39925;DHT22;25592;49.986;11.618;2023-09-08T14:37:28;32.50;58.30
39925;DHT22;25592;49.986;11.618;2023-09-08T14:40:15;32.50;57.00
39925;DHT22;25592;49.986;11.618;2023-09-08T14:43:00;32.50;58.10
39925;DHT22;25592;49.986;11.618;2023-09-08T14:45:46;32.30;58.00
39925;DHT22;25592;49.986;11.618;2023-09-08T14:48:31;32.30;57.20
39925;DHT22;25592;49.986;11.618;2023-09-08T14:51:17;32.30;57.70
39925;DHT22;25592;49.986;11.618;2023-09-08T14:54:03;32.30;58.20
39925;DHT22;25592;49.986;11.618;2023-09-08T14:56:49;32.50;58.10
39925;DHT22;25592;49.986;11.618;2023-09-08T14:59:34;32.40;57.60
39925;DHT22;25592;49.986;11.618;2023-09-08T15:02:20;32.40;57.70
39925;DHT22;25592;49.986;11.618;2023-09-08T15:05:06;32.40;57.70
39925;DHT22;25592;49.986;11.618;2023-09-08T15:07:51;32.20;58.70
39925;DHT22;25592;49.986;11.618;2023-09-08T15:10:37;32.10;58.40
39925;DHT22;25592;49.986;11.618;2023-09-08T15:13:22;32.20;57.70
39925;DHT22;25592;49.986;11.618;2023-09-08T15:16:08;32.20;58.10
39925;DHT22;25592;49.986;11.618;2023-09-08T15:18:53;32.30;58.50
39925;DHT22;25592;49.986;11.618;2023-09-08T15:21:41;32.40;58.00
39925;DHT22;25592;49.986;11.618;2023-09-08T15:24:27;32.30;59.50
39925;DHT22;25592;49.986;11.618;2023-09-08T15:27:12;32.30;58.60
39925;DHT22;25592;49.986;11.618;2023-09-08T15:29:58;32.40;58.60
39925;DHT22;25592;49.986;11.618;2023-09-08T15:32:43;32.40;59.00
39925;DHT22;25592;49.986;11.618;2023-09-08T15:35:30;32.20;58.10
39925;DHT22;25592;49.986;11.618;2023-09-08T15:38:15;32.30;58.50
39925;DHT22;25592;49.986;11.618;2023-09-08T15:43:53;32.50;59.50
39925;DHT22;25592;49.986;11.618;2023-09-08T15:46:40;32.40;58.20
39925;DHT22;25592;49.986;11.618;2023-09-08T15:49:26;32.20;57.00
39925;DHT22;25592;49.986;11.618;2023-09-08T15:52:12;32.10;58.50
39925;DHT22;25592;49.986;11.618;2023-09-08T15:55:01;32.10;58.00
39925;DHT22;25592;49.986;11.618;2023-09-08T15:57:46;32.30;59.80
39925;DHT22;25592;49.986;11.618;2023-09-08T16:00:32;32.40;59.30
39925;DHT22;25592;49.986;11.618;2023-09-08T16:03:17;32.30;59.90
39925;DHT22;25592;49.986;11.618;2023-09-08T16:06:03;32.40;59.70
39925;DHT22;25592;49.986;11.618;2023-09-08T16:08:49;32.40;59.20
39925;DHT22;25592;49.986;11.618;2023-09-08T16:11:34;32.50;59.20
39925;DHT22;25592;49.986;11.618;2023-09-08T16:14:20;32.50;59.80
39925;DHT22;25592;49.986;11.618;2023-09-08T16:17:05;32.50;59.00
39925;DHT22;25592;49.986;11.618;2023-09-08T16:19:52;32.50;60.40
39925;DHT22;25592;49.986;11.618;2023-09-08T16:22:37;32.50;60.80
39925;DHT22;25592;49.986;11.618;2023-09-08T16:25:22;32.70;61.10
39925;DHT22;25592;49.986;11.618;2023-09-08T16:28:09;32.60;61.20
39925;DHT22;25592;49.986;11.618;2023-09-08T16:30:54;32.60;62.00
39925;DHT22;25592;49.986;11.618;2023-09-08T16:33:40;32.50;62.00
39925;DHT22;25592;49.986;11.618;2023-09-08T16:36:25;32.50;62.20
39925;DHT22;25592;49.986;11.618;2023-09-08T16:39:11;32.30;62.00
39925;DHT22;25592;49.986;11.618;2023-09-08T16:41:56;32.10;61.80
39925;DHT22;25592;49.986;11.618;2023-09-08T16:44:42;31.90;61.70
39925;DHT22;25592;49.986;11.618;2023-09-08T16:47:28;31.60;61.10
39925;DHT22;25592;49.986;11.618;2023-09-08T16:50:14;31.40;61.90
39925;DHT22;25592;49.986;11.618;2023-09-08T16:53:00;31.20;62.10
39925;DHT22;25592;49.986;11.618;2023-09-08T16:55:45;31.00;62.60
39925;DHT22;25592;49.986;11.618;2023-09-08T16:58:30;31.00;62.80
39925;DHT22;25592;49.986;11.618;2023-09-08T17:01:16;30.80;63.90
39925;DHT22;25592;49.986;11.618;2023-09-08T17:04:01;30.60;63.80
39925;DHT22;25592;49.986;11.618;2023-09-08T17:06:48;30.50;64.60
39925;DHT22;25592;49.986;11.618;2023-09-08T17:09:34;30.30;63.80
39925;DHT22;25592;49.986;11.618;2023-09-08T17:12:19;30.00;63.90
39925;DHT22;25592;49.986;11.618;2023-09-08T17:15:05;29.70;64.10
39925;DHT22;25592;49.986;11.618;2023-09-08T17:17:51;29.50;64.00
39925;DHT22;25592;49.986;11.618;2023-09-08T17:20:36;29.30;65.00
39925;DHT22;25592;49.986;11.618;2023-09-08T17:23:22;29.20;65.40
39925;DHT22;25592;49.986;11.618;2023-09-08T17:26:08;29.00;65.50